sensor_id;sensor_type;location;lat;lon;timestamp;pressure;altitude;pressure_sealevel;temperature;humidity
62124;BME280;48110;47.532;19.078;2022-12-20T00:02:06;102284.56;;;-2.38;100.00
62124;BME280;48110;47.532;19.078;2022-12-20T00:05:12;102293.97;;;-2.34;100.00
62124;BME280;48110;47.532;19.078;2022-12-20T00:08:16;102287.69;;;-2.26;100.00
62124;BME280;48110;47.532;19.078;2022-12-20T00:11:21;102306.62;;;-2.22;100.00
62124;BME280;48110;47.532;19.078;2022-12-20T00:14:25;102299.91;;;-1.97;100.00
62124;BME280;48110;47.532;19.078;2022-12-20T00:17:29;102310.59;;;-2.07;100.00
62124;BME280;48110;47.532;19.078;2022-12-20T00:20:37;102304.44;;;-2.03;100.00
62124;BME280;48110;47.532;19.078;2022-12-20T00:23:42;102303.41;;;-1.98;100.00
62124;BME280;48110;47.532;19.078;2022-12-20T00:26:47;102307.84;;;-2.01;100.00
62124;BME280;48110;47.532;19.078;2022-12-20T00:29:53;102311.03;;;-1.92;100.00
62124;BME280;48110;47.532;19.078;2022-12-20T00:32:56;102290.81;;;-1.81;100.00
62124;BME280;48110;47.532;19.078;2022-12-20T00:36:04;102285.00;;;-1.90;100.00
62124;BME280;48110;47.532;19.078;2022-12-20T00:39:11;102287.44;;;-1.84;100.00
62124;BME280;48110;47.532;19.078;2022-12-20T00:42:16;102292.75;;;-1.89;100.00
62124;BME280;48110;47.532;19.078;2022-12-20T00:45:21;102288.28;;;-1.84;100.00
62124;BME280;48110;47.532;19.078;2022-12-20T00:48:27;102282.78;;;-1.73;100.00
62124;BME280;48110;47.532;19.078;2022-12-20T00:51:31;102275.56;;;-1.63;100.00
62124;BME280;48110;47.532;19.078;2022-12-20T00:54:38;102270.59;;;-1.71;100.00
62124;BME280;48110;47.532;19.078;2022-12-20T00:57:44;102254.00;;;-1.68;100.00
62124;BME280;48110;47.532;19.078;2022-12-20T01:00:53;102243.81;;;-1.74;100.00
62124;BME280;48110;47.532;19.078;2022-12-20T01:04:03;102254.22;;;-1.74;100.00
62124;BME280;48110;47.532;19.078;2022-12-20T01:07:10;102253.09;;;-1.66;100.00
62124;BME280;48110;47.532;19.078;2022-12-20T01:10:17;102254.75;;;-1.63;100.00
62124;BME280;48110;47.532;19.078;2022-12-20T01:13:23;102244.47;;;-1.68;100.00
62124;BME280;48110;47.532;19.078;2022-12-20T01:16:31;102248.75;;;-1.65;100.00
62124;BME280;48110;47.532;19.078;2022-12-20T01:19:37;102246.56;;;-1.81;100.00
62124;BME280;48110;47.532;19.078;2022-12-20T01:22:40;102243.44;;;-1.93;100.00
62124;BME280;48110;47.532;19.078;2022-12-20T01:25:51;102244.44;;;-1.97;100.00
62124;BME280;48110;47.532;19.078;2022-12-20T01:28:58;102246.78;;;-1.88;100.00
62124;BME280;48110;47.532;19.078;2022-12-20T01:32:06;102238.19;;;-1.90;100.00
62124;BME280;48110;47.532;19.078;2022-12-20T01:35:12;102224.53;;;-1.98;100.00
62124;BME280;48110;47.532;19.078;2022-12-20T01:38:19;102228.97;;;-2.02;100.00
62124;BME280;48110;47.532;19.078;2022-12-20T01:41:26;102211.09;;;-1.83;100.00
62124;BME280;48110;47.532;19.078;2022-12-20T01:47:48;102195.47;;;-1.83;100.00
62124;BME280;48110;47.532;19.078;2022-12-20T01:50:56;102191.84;;;-1.78;100.00
62124;BME280;48110;47.532;19.078;2022-12-20T01:54:10;102194.44;;;-1.78;100.00
62124;BME280;48110;47.532;19.078;2022-12-20T01:57:21;102185.87;;;-1.81;100.00
62124;BME280;48110;47.532;19.078;2022-12-20T02:00:30;102172.16;;;-1.86;100.00
62124;BME280;48110;47.532;19.078;2022-12-20T02:03:36;102167.78;;;-1.84;100.00
62124;BME280;48110;47.532;19.078;2022-12-20T02:06:42;102155.66;;;-1.85;100.00
62124;BME280;48110;47.532;19.078;2022-12-20T02:09:48;102160.94;;;-1.88;100.00
62124;BME280;48110;47.532;19.078;2022-12-20T02:13:01;102158.78;;;-1.74;100.00
62124;BME280;48110;47.532;19.078;2022-12-20T02:16:13;102147.41;;;-1.70;100.00
62124;BME280;48110;47.532;19.078;2022-12-20T02:32:19;102152.53;;;-1.96;100.00
62124;BME280;48110;47.532;19.078;2022-12-20T02:35:32;102156.44;;;-2.12;100.00
62124;BME280;48110;47.532;19.078;2022-12-20T02:38:40;102147.09;;;-2.18;100.00
62124;BME280;48110;47.532;19.078;2022-12-20T02:41:52;102146.25;;;-2.18;100.00
62124;BME280;48110;47.532;19.078;2022-12-20T02:44:59;102162.78;;;-2.21;100.00
62124;BME280;48110;47.532;19.078;2022-12-20T02:48:23;102151.50;;;-2.22;100.00
62124;BME280;48110;47.532;19.078;2022-12-20T02:51:32;102157.69;;;-2.26;100.00
62124;BME280;48110;47.532;19.078;2022-12-20T02:54:40;102143.66;;;-2.18;100.00
62124;BME280;48110;47.532;19.078;2022-12-20T02:57:47;102139.91;;;-2.08;100.00
62124;BME280;48110;47.532;19.078;2022-12-20T03:01:05;102123.78;;;-1.92;100.00
62124;BME280;48110;47.532;19.078;2022-12-20T03:04:16;102121.03;;;-1.87;100.00
62124;BME280;48110;47.532;19.078;2022-12-20T03:07:23;102119.19;;;-1.84;100.00
62124;BME280;48110;47.532;19.078;2022-12-20T03:10:29;102116.75;;;-1.60;100.00
62124;BME280;48110;47.532;19.078;2022-12-20T03:13:36;102108.16;;;-1.64;100.00
62124;BME280;48110;47.532;19.078;2022-12-20T03:16:43;102096.72;;;-1.58;100.00
62124;BME280;48110;47.532;19.078;2022-12-20T03:19:50;102104.66;;;-1.63;100.00
62124;BME280;48110;47.532;19.078;2022-12-20T03:22:56;102103.94;;;-1.66;100.00
62124;BME280;48110;47.532;19.078;2022-12-20T03:26:04;102106.41;;;-1.63;100.00
62124;BME280;48110;47.532;19.078;2022-12-20T03:29:09;102105.56;;;-1.64;100.00
62124;BME280;48110;47.532;19.078;2022-12-20T03:32:17;102096.78;;;-1.60;100.00
62124;BME280;48110;47.532;19.078;2022-12-20T03:35:25;102092.78;;;-1.70;100.00
62124;BME280;48110;47.532;19.078;2022-12-20T03:38:31;102106.97;;;-1.80;100.00
62124;BME280;48110;47.532;19.078;2022-12-20T03:41:40;102106.19;;;-1.84;100.00
62124;BME280;48110;47.532;19.078;2022-12-20T03:44:48;102101.66;;;-1.77;100.00
62124;BME280;48110;47.532;19.078;2022-12-20T03:47:54;102099.50;;;-1.92;100.00
62124;BME280;48110;47.532;19.078;2022-12-20T03:51:00;102099.69;;;-1.98;100.00
62124;BME280;48110;47.532;19.078;2022-12-20T03:54:08;102088.59;;;-2.03;100.00
62124;BME280;48110;47.532;19.078;2022-12-20T03:57:17;102093.88;;;-2.06;100.00
62124;BME280;48110;47.532;19.078;2022-12-20T04:00:24;102094.97;;;-2.13;100.00
62124;BME280;48110;47.532;19.078;2022-12-20T04:03:35;102086.81;;;-2.03;100.00
62124;BME280;48110;47.532;19.078;2022-12-20T04:06:41;102083.63;;;-2.11;100.00
62124;BME280;48110;47.532;19.078;2022-12-20T04:09:53;102085.09;;;-2.02;100.00
62124;BME280;48110;47.532;19.078;2022-12-20T04:13:01;102086.09;;;-2.08;100.00
62124;BME280;48110;47.532;19.078;2022-12-20T04:16:11;102070.66;;;-2.12;100.00
62124;BME280;48110;47.532;19.078;2022-12-20T04:19:21;102060.03;;;-2.05;100.00
62124;BME280;48110;47.532;19.078;2022-12-20T04:22:30;102042.69;;;-2.04;100.00
62124;BME280;48110;47.532;19.078;2022-12-20T04:25:37;102041.81;;;-2.03;100.00
62124;BME280;48110;47.532;19.078;2022-12-20T04:28:45;102047.63;;;-1.97;100.00
62124;BME280;48110;47.532;19.078;2022-12-20T04:31:51;102053.59;;;-1.93;100.00
62124;BME280;48110;47.532;19.078;2022-12-20T04:34:59;102054.25;;;-1.87;100.00
62124;BME280;48110;47.532;19.078;2022-12-20T04:38:09;102044.66;;;-1.85;100.00
62124;BME280;48110;47.532;19.078;2022-12-20T04:41:15;102051.41;;;-1.79;100.00
62124;BME280;48110;47.532;19.078;2022-12-20T04:44:33;102061.72;;;-1.76;100.00
62124;BME280;48110;47.532;19.078;2022-12-20T04:47:43;102053.87;;;-1.74;100.00
62124;BME280;48110;47.532;19.078;2022-12-20T04:50:50;102058.31;;;-1.78;100.00
62124;BME280;48110;47.532;19.078;2022-12-20T04:53:57;102055.56;;;-1.73;100.00
62124;BME280;48110;47.532;19.078;2022-12-20T04:57:04;102065.03;;;-1.71;100.00
62124;BME280;48110;47.532;19.078;2022-12-20T05:00:13;102078.06;;;-1.71;100.00
62124;BME280;48110;47.532;19.078;2022-12-20T05:03:20;102067.00;;;-1.79;100.00
62124;BME280;48110;47.532;19.078;2022-12-20T05:06:29;102068.97;;;-1.86;100.00
62124;BME280;48110;47.532;19.078;2022-12-20T05:09:35;102066.34;;;-1.84;100.00
62124;BME280;48110;47.532;19.078;2022-12-20T05:12:43;102075.41;;;-1.69;100.00
62124;BME280;48110;47.532;19.078;2022-12-20T05:15:53;102076.66;;;-1.83;100.00
62124;BME280;48110;47.532;19.078;2022-12-20T05:19:03;102081.94;;;-1.84;100.00
62124;BME280;48110;47.532;19.078;2022-12-20T05:22:12;102073.22;;;-1.83;100.00
62124;BME280;48110;47.532;19.078;2022-12-20T05:25:37;102075.81;;;-1.83;100.00
62124;BME280;48110;47.532;19.078;2022-12-20T05:29:01;102088.25;;;-1.93;100.00
62124;BME280;48110;47.532;19.078;2022-12-20T05:32:07;102084.16;;;-2.00;100.00
62124;BME280;48110;47.532;19.078;2022-12-20T05:35:12;102081.47;;;-1.98;100.00
62124;BME280;48110;47.532;19.078;2022-12-20T05:38:20;102084.22;;;-2.03;100.00
62124;BME280;48110;47.532;19.078;2022-12-20T05:41:26;102079.88;;;-2.02;100.00
62124;BME280;48110;47.532;19.078;2022-12-20T05:44:34;102080.56;;;-1.96;100.00
62124;BME280;48110;47.532;19.078;2022-12-20T05:47:41;102088.47;;;-1.99;100.00
62124;BME280;48110;47.532;19.078;2022-12-20T05:50:46;102081.47;;;-1.98;100.00
62124;BME280;48110;47.532;19.078;2022-12-20T05:53:52;102078.06;;;-1.99;100.00
62124;BME280;48110;47.532;19.078;2022-12-20T05:56:56;102074.59;;;-1.99;100.00
62124;BME280;48110;47.532;19.078;2022-12-20T06:00:01;102068.75;;;-2.07;100.00
62124;BME280;48110;47.532;19.078;2022-12-20T06:03:10;102057.47;;;-2.06;100.00
62124;BME280;48110;47.532;19.078;2022-12-20T06:06:16;102063.38;;;-2.01;100.00
62124;BME280;48110;47.532;19.078;2022-12-20T06:09:22;102054.19;;;-2.13;100.00
62124;BME280;48110;47.532;19.078;2022-12-20T06:12:26;102036.97;;;-2.15;100.00
62124;BME280;48110;47.532;19.078;2022-12-20T06:15:31;102037.00;;;-2.17;100.00
62124;BME280;48110;47.532;19.078;2022-12-20T06:18:38;102029.53;;;-2.28;100.00
62124;BME280;48110;47.532;19.078;2022-12-20T06:21:43;102034.50;;;-2.20;100.00
62124;BME280;48110;47.532;19.078;2022-12-20T06:24:50;102037.13;;;-2.22;100.00
62124;BME280;48110;47.532;19.078;2022-12-20T06:27:57;102036.81;;;-2.11;100.00
62124;BME280;48110;47.532;19.078;2022-12-20T06:31:02;102037.66;;;-2.10;100.00
62124;BME280;48110;47.532;19.078;2022-12-20T06:34:07;102037.19;;;-2.23;100.00
62124;BME280;48110;47.532;19.078;2022-12-20T06:37:12;102033.03;;;-2.29;100.00
62124;BME280;48110;47.532;19.078;2022-12-20T06:40:19;102028.53;;;-2.24;100.00
62124;BME280;48110;47.532;19.078;2022-12-20T06:43:23;102022.63;;;-2.29;100.00
62124;BME280;48110;47.532;19.078;2022-12-20T06:46:27;102025.97;;;-2.25;100.00
62124;BME280;48110;47.532;19.078;2022-12-20T06:49:32;102010.13;;;-2.17;100.00
62124;BME280;48110;47.532;19.078;2022-12-20T06:52:37;102019.75;;;-2.20;100.00
62124;BME280;48110;47.532;19.078;2022-12-20T06:55:42;102018.66;;;-2.12;100.00
62124;BME280;48110;47.532;19.078;2022-12-20T06:58:45;102013.28;;;-2.06;100.00
62124;BME280;48110;47.532;19.078;2022-12-20T07:01:49;102010.63;;;-2.05;100.00
62124;BME280;48110;47.532;19.078;2022-12-20T07:04:54;101993.13;;;-2.00;100.00
62124;BME280;48110;47.532;19.078;2022-12-20T07:08:00;102002.72;;;-2.02;100.00
62124;BME280;48110;47.532;19.078;2022-12-20T07:11:06;102006.75;;;-1.92;100.00
62124;BME280;48110;47.532;19.078;2022-12-20T07:14:10;102004.88;;;-1.88;100.00
62124;BME280;48110;47.532;19.078;2022-12-20T07:17:14;101995.19;;;-1.83;100.00
62124;BME280;48110;47.532;19.078;2022-12-20T07:20:20;101995.28;;;-1.86;100.00
62124;BME280;48110;47.532;19.078;2022-12-20T07:23:25;102015.59;;;-1.71;100.00
62124;BME280;48110;47.532;19.078;2022-12-20T07:26:30;102014.25;;;-1.56;100.00
62124;BME280;48110;47.532;19.078;2022-12-20T07:29:35;102011.03;;;-1.38;100.00
62124;BME280;48110;47.532;19.078;2022-12-20T07:32:40;102010.28;;;-1.42;100.00
62124;BME280;48110;47.532;19.078;2022-12-20T07:35:45;102025.94;;;-1.43;100.00
62124;BME280;48110;47.532;19.078;2022-12-20T07:38:57;102028.41;;;-1.39;100.00
62124;BME280;48110;47.532;19.078;2022-12-20T07:42:02;102012.75;;;-1.37;100.00
62124;BME280;48110;47.532;19.078;2022-12-20T07:45:09;102011.88;;;-1.38;100.00
62124;BME280;48110;47.532;19.078;2022-12-20T07:48:13;102010.19;;;-1.39;100.00
62124;BME280;48110;47.532;19.078;2022-12-20T07:51:27;102009.28;;;-1.38;100.00
62124;BME280;48110;47.532;19.078;2022-12-20T07:54:32;102013.47;;;-1.34;100.00
62124;BME280;48110;47.532;19.078;2022-12-20T07:57:41;102015.91;;;-1.29;100.00
62124;BME280;48110;47.532;19.078;2022-12-20T08:00:47;102016.94;;;-1.33;100.00
62124;BME280;48110;47.532;19.078;2022-12-20T08:03:52;102006.31;;;-1.27;100.00
62124;BME280;48110;47.532;19.078;2022-12-20T08:06:57;101996.53;;;-1.20;100.00
62124;BME280;48110;47.532;19.078;2022-12-20T08:10:03;101996.47;;;-1.19;100.00
62124;BME280;48110;47.532;19.078;2022-12-20T08:13:07;101986.06;;;-1.19;100.00
62124;BME280;48110;47.532;19.078;2022-12-20T08:16:12;101975.59;;;-1.17;100.00
62124;BME280;48110;47.532;19.078;2022-12-20T08:19:17;101980.03;;;-1.21;100.00
62124;BME280;48110;47.532;19.078;2022-12-20T08:22:22;101976.34;;;-1.14;100.00
62124;BME280;48110;47.532;19.078;2022-12-20T08:25:25;101962.75;;;-1.22;100.00
62124;BME280;48110;47.532;19.078;2022-12-20T08:28:30;101965.19;;;-1.17;100.00
62124;BME280;48110;47.532;19.078;2022-12-20T08:31:40;101972.41;;;-1.25;100.00
62124;BME280;48110;47.532;19.078;2022-12-20T08:34:53;101968.31;;;-1.08;100.00
62124;BME280;48110;47.532;19.078;2022-12-20T08:37:59;101980.88;;;-0.96;100.00
62124;BME280;48110;47.532;19.078;2022-12-20T08:41:06;101972.28;;;-0.98;100.00
62124;BME280;48110;47.532;19.078;2022-12-20T08:44:09;101969.44;;;-0.92;100.00
62124;BME280;48110;47.532;19.078;2022-12-20T08:47:12;101976.94;;;-0.82;100.00
62124;BME280;48110;47.532;19.078;2022-12-20T08:50:15;101978.87;;;-0.88;100.00
62124;BME280;48110;47.532;19.078;2022-12-20T08:53:20;101971.78;;;-0.84;100.00
62124;BME280;48110;47.532;19.078;2022-12-20T08:56:24;101960.62;;;-0.88;100.00
62124;BME280;48110;47.532;19.078;2022-12-20T08:59:27;101955.25;;;-0.83;100.00
62124;BME280;48110;47.532;19.078;2022-12-20T09:02:30;101962.03;;;-0.79;100.00
62124;BME280;48110;47.532;19.078;2022-12-20T09:05:34;101972.06;;;-0.68;100.00
62124;BME280;48110;47.532;19.078;2022-12-20T09:08:38;101971.53;;;-0.55;100.00
62124;BME280;48110;47.532;19.078;2022-12-20T09:11:43;101953.91;;;-0.48;100.00
62124;BME280;48110;47.532;19.078;2022-12-20T09:14:48;101962.78;;;-0.30;100.00
62124;BME280;48110;47.532;19.078;2022-12-20T09:17:52;101968.72;;;-0.27;100.00
62124;BME280;48110;47.532;19.078;2022-12-20T09:20:59;101972.53;;;-0.14;100.00
62124;BME280;48110;47.532;19.078;2022-12-20T09:24:03;101972.44;;;-0.11;100.00
62124;BME280;48110;47.532;19.078;2022-12-20T09:27:08;101962.84;;;-0.10;100.00
62124;BME280;48110;47.532;19.078;2022-12-20T09:30:11;101947.53;;;0.03;100.00
62124;BME280;48110;47.532;19.078;2022-12-20T09:33:14;101956.94;;;0.07;100.00
62124;BME280;48110;47.532;19.078;2022-12-20T09:36:21;101945.78;;;0.03;100.00
62124;BME280;48110;47.532;19.078;2022-12-20T09:39:24;101947.28;;;0.09;100.00
62124;BME280;48110;47.532;19.078;2022-12-20T09:42:27;101933.22;;;0.13;100.00
62124;BME280;48110;47.532;19.078;2022-12-20T09:45:33;101928.50;;;0.21;100.00
62124;BME280;48110;47.532;19.078;2022-12-20T09:48:37;101919.62;;;0.25;100.00
62124;BME280;48110;47.532;19.078;2022-12-20T09:55:00;101915.41;;;0.22;100.00
62124;BME280;48110;47.532;19.078;2022-12-20T10:01:30;101910.66;;;0.52;100.00
62124;BME280;48110;47.532;19.078;2022-12-20T10:04:41;101901.97;;;0.52;100.00
62124;BME280;48110;47.532;19.078;2022-12-20T10:07:51;101897.19;;;0.41;100.00
62124;BME280;48110;47.532;19.078;2022-12-20T10:10:58;101905.22;;;0.36;100.00
62124;BME280;48110;47.532;19.078;2022-12-20T10:17:13;101888.91;;;0.31;100.00
62124;BME280;48110;47.532;19.078;2022-12-20T10:20:28;101882.03;;;0.49;100.00
62124;BME280;48110;47.532;19.078;2022-12-20T10:23:55;101881.06;;;0.52;100.00
62124;BME280;48110;47.532;19.078;2022-12-20T10:27:16;101860.13;;;0.53;100.00
62124;BME280;48110;47.532;19.078;2022-12-20T10:30:21;101872.91;;;0.78;100.00
62124;BME280;48110;47.532;19.078;2022-12-20T10:33:26;101864.25;;;0.96;100.00
62124;BME280;48110;47.532;19.078;2022-12-20T10:36:32;101865.44;;;0.89;100.00
62124;BME280;48110;47.532;19.078;2022-12-20T10:39:39;101849.84;;;1.06;100.00
62124;BME280;48110;47.532;19.078;2022-12-20T10:42:43;101842.28;;;1.19;100.00
62124;BME280;48110;47.532;19.078;2022-12-20T10:45:55;101847.22;;;1.61;100.00
62124;BME280;48110;47.532;19.078;2022-12-20T10:49:19;101842.12;;;1.58;100.00
62124;BME280;48110;47.532;19.078;2022-12-20T10:52:23;101852.53;;;2.28;100.00
62124;BME280;48110;47.532;19.078;2022-12-20T10:55:35;101837.28;;;2.19;97.99
62124;BME280;48110;47.532;19.078;2022-12-20T10:58:40;101824.50;;;1.44;100.00
62124;BME280;48110;47.532;19.078;2022-12-20T11:01:45;101806.50;;;1.38;100.00
62124;BME280;48110;47.532;19.078;2022-12-20T11:05:02;101809.59;;;1.63;100.00
62124;BME280;48110;47.532;19.078;2022-12-20T11:08:15;101808.12;;;1.58;100.00
62124;BME280;48110;47.532;19.078;2022-12-20T11:11:38;101801.75;;;1.10;100.00
62124;BME280;48110;47.532;19.078;2022-12-20T11:14:43;101801.50;;;1.51;100.00
62124;BME280;48110;47.532;19.078;2022-12-20T11:21:23;101791.66;;;1.56;100.00
62124;BME280;48110;47.532;19.078;2022-12-20T11:37:29;101765.16;;;2.13;96.90
62124;BME280;48110;47.532;19.078;2022-12-20T11:40:36;101763.78;;;2.39;95.55
62124;BME280;48110;47.532;19.078;2022-12-20T11:53:47;101750.53;;;2.58;95.70
62124;BME280;48110;47.532;19.078;2022-12-20T11:56:55;101748.84;;;2.41;94.52
62124;BME280;48110;47.532;19.078;2022-12-20T12:00:03;101757.03;;;2.02;96.47
62124;BME280;48110;47.532;19.078;2022-12-20T12:06:28;101740.47;;;2.82;93.35
62124;BME280;48110;47.532;19.078;2022-12-20T12:12:43;101739.13;;;3.06;91.87
62124;BME280;48110;47.532;19.078;2022-12-20T12:15:58;101732.13;;;3.36;90.17
62124;BME280;48110;47.532;19.078;2022-12-20T12:19:04;101726.06;;;3.94;83.05
62124;BME280;48110;47.532;19.078;2022-12-20T12:22:19;101722.50;;;3.21;86.10
62124;BME280;48110;47.532;19.078;2022-12-20T12:25:26;101724.41;;;3.03;86.23
62124;BME280;48110;47.532;19.078;2022-12-20T12:28:31;101722.63;;;2.26;91.21
62124;BME280;48110;47.532;19.078;2022-12-20T12:31:52;101715.63;;;2.89;88.59
62124;BME280;48110;47.532;19.078;2022-12-20T12:44:47;101698.03;;;2.28;90.84
62124;BME280;48110;47.532;19.078;2022-12-20T12:48:04;101686.91;;;2.25;91.86
62124;BME280;48110;47.532;19.078;2022-12-20T12:51:10;101696.03;;;2.33;94.18
62124;BME280;48110;47.532;19.078;2022-12-20T12:54:18;101693.69;;;2.60;93.71
62124;BME280;48110;47.532;19.078;2022-12-20T12:57:25;101690.44;;;2.24;92.82
62124;BME280;48110;47.532;19.078;2022-12-20T13:06:56;101694.69;;;2.26;92.29
62124;BME280;48110;47.532;19.078;2022-12-20T13:10:04;101691.94;;;2.12;94.00
62124;BME280;48110;47.532;19.078;2022-12-20T13:13:26;101684.50;;;2.04;94.29
62124;BME280;48110;47.532;19.078;2022-12-20T13:16:31;101676.00;;;2.16;94.46
62124;BME280;48110;47.532;19.078;2022-12-20T13:19:54;101677.78;;;2.16;95.43
62124;BME280;48110;47.532;19.078;2022-12-20T13:33:15;101669.91;;;2.16;94.29
62124;BME280;48110;47.532;19.078;2022-12-20T13:36:30;101655.31;;;2.12;94.95
62124;BME280;48110;47.532;19.078;2022-12-20T13:39:35;101657.75;;;2.31;94.66
62124;BME280;48110;47.532;19.078;2022-12-20T13:42:39;101651.41;;;2.19;95.39
62124;BME280;48110;47.532;19.078;2022-12-20T13:45:47;101658.41;;;2.03;94.93
62124;BME280;48110;47.532;19.078;2022-12-20T13:48:55;101666.22;;;1.87;96.63
62124;BME280;48110;47.532;19.078;2022-12-20T13:55:22;101661.53;;;2.09;96.66
62124;BME280;48110;47.532;19.078;2022-12-20T13:58:29;101644.97;;;2.09;97.72
62124;BME280;48110;47.532;19.078;2022-12-20T14:01:45;101648.31;;;1.80;97.20
62124;BME280;48110;47.532;19.078;2022-12-20T14:04:52;101638.69;;;1.80;98.25
62124;BME280;48110;47.532;19.078;2022-12-20T14:11:17;101616.78;;;1.65;98.72
62124;BME280;48110;47.532;19.078;2022-12-20T14:14:23;101625.12;;;1.56;99.96
62124;BME280;48110;47.532;19.078;2022-12-20T14:17:30;101619.91;;;1.56;100.00
62124;BME280;48110;47.532;19.078;2022-12-20T14:20:39;101612.06;;;1.56;100.00
62124;BME280;48110;47.532;19.078;2022-12-20T14:23:44;101617.28;;;1.56;100.00
62124;BME280;48110;47.532;19.078;2022-12-20T14:26:49;101622.63;;;1.55;100.00
62124;BME280;48110;47.532;19.078;2022-12-20T14:29:56;101617.69;;;1.31;100.00
62124;BME280;48110;47.532;19.078;2022-12-20T14:33:01;101609.22;;;1.11;100.00
62124;BME280;48110;47.532;19.078;2022-12-20T14:39:27;101602.94;;;0.79;100.00
62124;BME280;48110;47.532;19.078;2022-12-20T14:42:34;101597.00;;;0.58;100.00
62124;BME280;48110;47.532;19.078;2022-12-20T14:45:40;101591.03;;;0.56;100.00
62124;BME280;48110;47.532;19.078;2022-12-20T14:48:44;101594.78;;;0.51;100.00
62124;BME280;48110;47.532;19.078;2022-12-20T14:51:47;101593.94;;;0.50;100.00
62124;BME280;48110;47.532;19.078;2022-12-20T15:01:27;101591.59;;;0.44;100.00
62124;BME280;48110;47.532;19.078;2022-12-20T15:04:43;101591.53;;;0.46;100.00
62124;BME280;48110;47.532;19.078;2022-12-20T15:07:48;101596.06;;;0.42;100.00
62124;BME280;48110;47.532;19.078;2022-12-20T15:14:02;101593.53;;;0.40;100.00
62124;BME280;48110;47.532;19.078;2022-12-20T15:17:20;101587.97;;;0.48;100.00
62124;BME280;48110;47.532;19.078;2022-12-20T15:20:24;101585.69;;;0.40;100.00
62124;BME280;48110;47.532;19.078;2022-12-20T15:23:27;101586.84;;;0.35;100.00
62124;BME280;48110;47.532;19.078;2022-12-20T15:26:32;101580.97;;;0.30;100.00
62124;BME280;48110;47.532;19.078;2022-12-20T15:29:36;101582.22;;;0.23;100.00
62124;BME280;48110;47.532;19.078;2022-12-20T15:32:43;101589.81;;;0.27;100.00
62124;BME280;48110;47.532;19.078;2022-12-20T15:35:57;101592.66;;;0.23;100.00
62124;BME280;48110;47.532;19.078;2022-12-20T15:39:01;101591.00;;;0.20;100.00
62124;BME280;48110;47.532;19.078;2022-12-20T15:42:16;101605.59;;;0.24;100.00
62124;BME280;48110;47.532;19.078;2022-12-20T15:45:20;101601.88;;;0.11;100.00
62124;BME280;48110;47.532;19.078;2022-12-20T15:48:24;101613.31;;;0.09;100.00
62124;BME280;48110;47.532;19.078;2022-12-20T15:51:35;101610.56;;;0.12;100.00
62124;BME280;48110;47.532;19.078;2022-12-20T15:54:39;101621.38;;;0.04;100.00
62124;BME280;48110;47.532;19.078;2022-12-20T15:57:44;101616.22;;;0.03;100.00
62124;BME280;48110;47.532;19.078;2022-12-20T16:00:52;101611.06;;;0.01;100.00
62124;BME280;48110;47.532;19.078;2022-12-20T16:04:01;101599.75;;;0.00;100.00
62124;BME280;48110;47.532;19.078;2022-12-20T16:07:07;101595.56;;;-0.02;100.00
62124;BME280;48110;47.532;19.078;2022-12-20T16:10:17;101599.72;;;0.02;100.00
62124;BME280;48110;47.532;19.078;2022-12-20T16:13:23;101593.09;;;-0.05;100.00
62124;BME280;48110;47.532;19.078;2022-12-20T16:16:35;101597.47;;;-0.06;100.00
62124;BME280;48110;47.532;19.078;2022-12-20T16:19:41;101605.50;;;-0.10;100.00
62124;BME280;48110;47.532;19.078;2022-12-20T16:22:47;101604.72;;;-0.12;100.00
62124;BME280;48110;47.532;19.078;2022-12-20T16:25:53;101596.94;;;-0.14;100.00
62124;BME280;48110;47.532;19.078;2022-12-20T16:29:00;101603.72;;;-0.10;100.00
62124;BME280;48110;47.532;19.078;2022-12-20T16:32:15;101589.84;;;-0.10;100.00
62124;BME280;48110;47.532;19.078;2022-12-20T16:35:21;101582.84;;;-0.10;100.00
62124;BME280;48110;47.532;19.078;2022-12-20T16:38:27;101595.06;;;-0.10;100.00
62124;BME280;48110;47.532;19.078;2022-12-20T16:41:31;101588.91;;;-0.09;100.00
62124;BME280;48110;47.532;19.078;2022-12-20T16:44:38;101590.25;;;-0.19;100.00
62124;BME280;48110;47.532;19.078;2022-12-20T16:47:46;101584.84;;;-0.15;100.00
62124;BME280;48110;47.532;19.078;2022-12-20T16:50:52;101587.38;;;-0.13;100.00
62124;BME280;48110;47.532;19.078;2022-12-20T16:54:02;101589.22;;;-0.15;100.00
62124;BME280;48110;47.532;19.078;2022-12-20T16:57:24;101579.69;;;-0.16;100.00
62124;BME280;48110;47.532;19.078;2022-12-20T17:00:32;101581.44;;;-0.17;100.00
62124;BME280;48110;47.532;19.078;2022-12-20T17:03:40;101569.81;;;-0.10;100.00
62124;BME280;48110;47.532;19.078;2022-12-20T17:06:46;101554.59;;;-0.19;100.00
62124;BME280;48110;47.532;19.078;2022-12-20T17:09:51;101559.91;;;-0.20;100.00
62124;BME280;48110;47.532;19.078;2022-12-20T17:12:57;101558.87;;;-0.18;100.00
62124;BME280;48110;47.532;19.078;2022-12-20T17:16:07;101561.88;;;-0.25;100.00
62124;BME280;48110;47.532;19.078;2022-12-20T17:19:12;101563.62;;;-0.26;100.00
62124;BME280;48110;47.532;19.078;2022-12-20T17:22:18;101551.75;;;-0.33;100.00
62124;BME280;48110;47.532;19.078;2022-12-20T17:25:41;101562.19;;;-0.33;100.00
62124;BME280;48110;47.532;19.078;2022-12-20T17:28:56;101558.87;;;-0.18;100.00
62124;BME280;48110;47.532;19.078;2022-12-20T17:32:39;101548.25;;;-0.32;100.00
62124;BME280;48110;47.532;19.078;2022-12-20T17:35:38;101557.72;;;-0.29;100.00
62124;BME280;48110;47.532;19.078;2022-12-20T17:38:45;101558.47;;;-0.27;100.00
62124;BME280;48110;47.532;19.078;2022-12-20T17:41:53;101561.97;;;-0.28;100.00
62124;BME280;48110;47.532;19.078;2022-12-20T17:44:59;101557.84;;;-0.32;100.00
62124;BME280;48110;47.532;19.078;2022-12-20T17:48:03;101553.25;;;-0.27;100.00